createdAt,value
2023-01-21T00:01:01.170Z,25.88
2023-01-21T00:03:28.047Z,25.63
2023-01-21T00:05:55.044Z,25.38
2023-01-21T00:08:21.928Z,24.80
2023-01-21T00:10:48.780Z,24.52
2023-01-21T00:13:15.492Z,24.38
2023-01-21T00:15:42.249Z,25.17
2023-01-21T00:18:09.211Z,24.95
2023-01-21T00:20:36.291Z,27.13
2023-01-21T00:23:03.103Z,25.73
2023-01-21T00:25:35.776Z,23.15
2023-01-21T00:28:03.420Z,20.88
2023-01-21T00:30:30.753Z,21.23
2023-01-21T00:32:57.517Z,21.67
2023-01-21T00:35:24.315Z,21.65
2023-01-21T00:37:51.826Z,20.63
2023-01-21T00:40:19.131Z,24.23
2023-01-21T00:42:46.177Z,27.85
2023-01-21T00:45:12.932Z,26.10
2023-01-21T00:47:40.270Z,23.63
2023-01-21T00:50:07.738Z,26.90
2023-01-21T00:52:34.480Z,21.75
2023-01-21T00:55:01.281Z,23.98
2023-01-21T00:57:28.101Z,23.80
2023-01-21T00:59:54.992Z,25.13
2023-01-21T01:02:21.790Z,26.70
2023-01-21T01:04:48.635Z,25.55
2023-01-21T01:07:15.484Z,27.08
2023-01-21T01:09:42.295Z,22.83
2023-01-21T01:12:09.070Z,23.33
2023-01-21T01:14:36.241Z,29.83
2023-01-21T01:17:03.083Z,24.20
2023-01-21T01:19:30.549Z,29.55
2023-01-21T01:21:57.515Z,28.02
2023-01-21T01:24:24.368Z,22.52
2023-01-21T01:26:51.066Z,27.63
2023-01-21T01:29:18.692Z,26.83
2023-01-21T01:31:45.738Z,27.63
2023-01-21T01:34:12.706Z,27.77
2023-01-21T01:36:39.520Z,27.52
2023-01-21T01:39:06.409Z,33.60
2023-01-21T01:41:35.341Z,27.10
2023-01-21T01:44:24.393Z,25.55
2023-01-21T01:46:51.357Z,26.60
2023-01-21T01:49:21.324Z,32.55
2023-01-21T01:51:55.316Z,28.95
2023-01-21T01:54:34.706Z,32.30
2023-01-21T01:57:03.050Z,34.33
2023-01-21T01:59:30.719Z,35.30
2023-01-21T02:01:59.390Z,31.52
2023-01-21T02:04:30.161Z,28.05
2023-01-21T02:06:57.804Z,35.33
2023-01-21T02:09:30.090Z,36.25
2023-01-21T02:11:58.660Z,32.67
2023-01-21T02:14:25.717Z,30.25
2023-01-21T02:17:02.555Z,33.38
2023-01-21T02:19:29.234Z,38.00
2023-01-21T02:22:23.112Z,31.27
2023-01-21T02:24:55.891Z,35.10
2023-01-21T02:27:42.811Z,39.00
2023-01-21T02:30:41.355Z,32.03
2023-01-21T02:33:09.906Z,34.22
2023-01-21T02:35:45.747Z,31.92
2023-01-21T02:38:22.341Z,40.58
2023-01-21T02:41:01.718Z,34.10
2023-01-21T02:43:44.417Z,33.78
2023-01-21T02:46:46.162Z,36.03
2023-01-21T02:49:24.633Z,41.35
2023-01-21T02:51:51.442Z,34.72
2023-01-21T02:54:40.338Z,37.38
2023-01-21T02:57:09.067Z,31.90
2023-01-21T02:59:36.951Z,33.70
2023-01-21T03:02:15.820Z,35.13
2023-01-21T03:05:19.301Z,35.30
2023-01-21T03:08:01.913Z,36.67
2023-01-21T03:10:49.648Z,35.10
2023-01-21T03:13:51.391Z,37.00
2023-01-21T03:16:40.350Z,38.05
2023-01-21T03:19:09.777Z,37.58
2023-01-21T03:21:36.966Z,36.70
2023-01-21T03:24:04.304Z,35.70
2023-01-21T03:26:33.804Z,38.53
2023-01-21T03:29:05.157Z,43.83
2023-01-21T03:31:33.880Z,39.30
2023-01-21T03:34:04.269Z,42.10
2023-01-21T03:36:37.419Z,41.53
2023-01-21T03:39:10.452Z,37.88
2023-01-21T03:41:39.022Z,37.35
2023-01-21T03:44:06.278Z,41.28
2023-01-21T03:46:45.489Z,36.33
2023-01-21T03:49:41.920Z,39.28
2023-01-21T03:52:10.131Z,40.28
2023-01-21T03:54:36.984Z,40.80
2023-01-21T03:57:03.805Z,40.65
2023-01-21T03:59:30.526Z,45.00
2023-01-21T04:01:57.316Z,43.40
2023-01-21T04:04:24.118Z,43.35
2023-01-21T04:06:51.076Z,40.25
2023-01-21T04:09:17.837Z,44.67
2023-01-21T04:11:44.975Z,43.47
2023-01-21T04:14:12.155Z,45.45
2023-01-21T04:16:39.435Z,45.08
2023-01-21T04:19:06.416Z,41.85
2023-01-21T04:21:33.160Z,46.25
2023-01-21T04:23:59.913Z,46.10
2023-01-21T04:26:27.597Z,40.78
2023-01-21T04:28:54.570Z,42.38
2023-01-21T04:31:21.618Z,43.88
2023-01-21T04:33:48.570Z,43.22
2023-01-21T04:36:15.457Z,44.53
2023-01-21T04:38:42.301Z,44.38
2023-01-21T04:41:09.135Z,44.03
2023-01-21T04:43:36.064Z,43.42
2023-01-21T04:46:02.966Z,43.65
2023-01-21T04:48:29.795Z,41.95
2023-01-21T04:50:56.634Z,49.80
2023-01-21T04:53:23.458Z,43.53
2023-01-21T04:55:53.834Z,40.67
2023-01-21T04:58:21.235Z,45.65
2023-01-21T05:00:48.150Z,43.25
2023-01-21T05:03:15.473Z,45.20
2023-01-21T05:05:42.326Z,46.70
2023-01-21T05:08:09.284Z,44.75
2023-01-21T05:10:36.240Z,48.03
2023-01-21T05:13:03.400Z,43.03
2023-01-21T05:15:30.322Z,42.13
2023-01-21T05:17:57.232Z,41.17
2023-01-21T05:20:23.964Z,42.05
2023-01-21T05:22:50.918Z,44.83
2023-01-21T05:25:17.836Z,44.42
2023-01-21T05:27:44.564Z,48.75
2023-01-21T05:30:11.705Z,45.17
2023-01-21T05:32:38.785Z,47.83
2023-01-21T05:35:05.986Z,44.28
2023-01-21T05:37:32.695Z,46.85
2023-01-21T05:39:59.512Z,43.00
2023-01-21T05:42:26.301Z,49.65
2023-01-21T05:44:53.408Z,44.47
2023-01-21T05:47:20.263Z,45.80
2023-01-21T05:49:47.572Z,45.75
2023-01-21T05:52:14.902Z,47.78
2023-01-21T05:54:49.247Z,47.63
2023-01-21T05:57:23.051Z,42.60
2023-01-21T05:59:49.780Z,42.63
2023-01-21T06:02:16.883Z,42.92
2023-01-21T06:04:43.755Z,47.20
2023-01-21T06:07:10.722Z,47.78
2023-01-21T06:09:37.484Z,45.75
2023-01-21T06:12:04.837Z,51.00
2023-01-21T06:14:31.561Z,48.25
2023-01-21T06:16:58.568Z,49.28
2023-01-21T06:19:25.327Z,46.35
2023-01-21T06:21:52.659Z,46.83
2023-01-21T06:24:19.468Z,46.67
2023-01-21T06:26:47.076Z,52.50
2023-01-21T06:29:14.024Z,43.05
2023-01-21T06:31:41.453Z,48.30
2023-01-21T06:34:09.354Z,45.88
2023-01-21T06:36:36.518Z,48.13
2023-01-21T06:39:03.191Z,48.65
2023-01-21T06:41:30.286Z,49.97
2023-01-21T06:43:57.015Z,50.75
2023-01-21T06:46:23.855Z,56.35
2023-01-21T06:48:52.231Z,67.75
2023-01-21T06:51:19.665Z,67.63
2023-01-21T06:53:46.500Z,61.97
2023-01-21T06:56:13.355Z,62.53
2023-01-21T06:58:40.159Z,58.58
2023-01-21T07:01:06.890Z,48.83
2023-01-21T07:03:33.687Z,54.00
2023-01-21T07:06:00.534Z,49.95
2023-01-21T07:08:27.363Z,46.33
2023-01-21T07:10:54.906Z,44.45
2023-01-21T07:13:21.616Z,47.35
2023-01-21T07:15:48.383Z,49.40
2023-01-21T07:18:15.108Z,46.65
2023-01-21T07:20:44.349Z,45.45
2023-01-21T07:23:11.040Z,49.35
2023-01-21T07:25:38.303Z,47.53
2023-01-21T07:28:05.204Z,51.47
2023-01-21T07:30:31.984Z,51.97
2023-01-21T07:32:58.668Z,51.70
2023-01-21T07:35:25.491Z,49.65
2023-01-21T07:37:52.380Z,43.58
2023-01-21T07:40:19.423Z,50.78
2023-01-21T07:42:54.174Z,50.83
2023-01-21T07:45:22.257Z,51.53
2023-01-21T07:47:49.460Z,50.67
2023-01-21T07:50:16.916Z,49.67
2023-01-21T07:52:43.781Z,49.90
2023-01-21T07:55:12.569Z,56.53
2023-01-21T07:57:39.554Z,53.28
2023-01-21T08:00:07.590Z,51.90
2023-01-21T08:02:46.099Z,49.72
2023-01-21T08:05:12.969Z,51.92
2023-01-21T08:07:39.742Z,51.30
2023-01-21T08:10:06.711Z,47.70
2023-01-21T08:12:33.489Z,53.15
2023-01-21T08:15:00.278Z,48.90
2023-01-21T08:17:27.230Z,47.47
2023-01-21T08:19:54.000Z,55.15
2023-01-21T08:22:20.748Z,52.10
2023-01-21T08:24:47.732Z,45.22
2023-01-21T08:27:14.739Z,51.67
2023-01-21T08:29:41.559Z,53.33
2023-01-21T08:32:08.223Z,58.10
2023-01-21T08:34:35.046Z,57.28
2023-01-21T08:37:01.894Z,53.00
2023-01-21T08:39:28.620Z,53.88
2023-01-21T08:41:55.359Z,50.00
2023-01-21T08:44:22.082Z,51.97
2023-01-21T08:46:49.075Z,57.72
2023-01-21T08:49:15.885Z,51.05
2023-01-21T08:51:43.168Z,53.75
2023-01-21T08:54:09.898Z,53.30
2023-01-21T08:56:36.663Z,54.05
2023-01-21T08:59:03.465Z,51.25
2023-01-21T09:01:30.218Z,52.13
2023-01-21T09:03:58.249Z,54.58
2023-01-21T09:06:27.946Z,54.15
2023-01-21T09:08:58.425Z,54.67
2023-01-21T09:11:25.976Z,48.05
2023-01-21T09:13:52.990Z,52.38
2023-01-21T09:16:21.857Z,55.63
2023-01-21T09:18:49.172Z,52.17
2023-01-21T09:21:16.672Z,53.10
2023-01-21T09:23:44.435Z,51.38
2023-01-21T09:26:22.389Z,47.22
2023-01-21T09:29:01.215Z,47.47
2023-01-21T09:31:29.743Z,48.60
2023-01-21T09:34:02.475Z,45.50
2023-01-21T09:36:31.830Z,50.20
2023-01-21T09:38:59.158Z,50.78
2023-01-21T09:41:47.507Z,49.25
2023-01-21T09:44:34.355Z,50.97
2023-01-21T09:47:25.958Z,51.53
2023-01-21T09:50:03.773Z,52.78
2023-01-21T09:52:52.392Z,46.80
2023-01-21T09:55:35.611Z,48.30
2023-01-21T09:58:26.909Z,56.15
2023-01-21T10:01:06.114Z,50.28
2023-01-21T10:03:46.143Z,49.40
2023-01-21T10:06:16.073Z,45.22
2023-01-21T10:08:46.222Z,46.70
2023-01-21T10:11:21.176Z,51.67
2023-01-21T10:14:23.643Z,48.33
2023-01-21T10:17:14.971Z,49.10
2023-01-21T10:19:51.034Z,50.47
2023-01-21T10:22:21.995Z,46.08
2023-01-21T10:24:52.417Z,48.05
2023-01-21T10:27:20.958Z,48.63
2023-01-21T10:29:55.940Z,46.25
2023-01-21T10:32:25.801Z,52.33
2023-01-21T10:34:55.577Z,50.65
2023-01-21T10:37:37.539Z,51.80
2023-01-21T10:40:43.973Z,46.60
2023-01-21T10:43:36.303Z,55.50
2023-01-21T10:46:30.556Z,47.65
2023-01-21T10:49:11.423Z,53.03
2023-01-21T10:51:44.081Z,49.50
2023-01-21T10:54:32.750Z,53.67
2023-01-21T10:57:37.093Z,48.28
2023-01-21T11:00:05.367Z,44.90
2023-01-21T11:02:34.090Z,45.75
2023-01-21T11:05:04.075Z,52.15
2023-01-21T11:07:39.379Z,49.15
2023-01-21T11:10:09.836Z,47.78
2023-01-21T11:12:36.638Z,51.22
2023-01-21T11:15:13.881Z,50.20
2023-01-21T11:17:42.445Z,52.03
2023-01-21T11:20:39.610Z,47.28
2023-01-21T11:23:07.668Z,46.63
2023-01-21T11:25:41.771Z,55.47
2023-01-21T11:28:26.504Z,51.55
2023-01-21T11:31:07.431Z,54.80
2023-01-21T11:33:34.764Z,49.45
2023-01-21T11:36:13.882Z,49.67
2023-01-21T11:38:40.952Z,52.05
2023-01-21T11:41:21.217Z,52.25
2023-01-21T11:43:51.311Z,56.22
2023-01-21T11:46:30.657Z,56.38
2023-01-21T11:49:19.237Z,55.20
2023-01-21T11:51:47.410Z,64.07
2023-01-21T11:54:22.005Z,53.70
2023-01-21T11:57:00.468Z,58.40
2023-01-21T11:59:34.284Z,55.17
2023-01-21T12:02:10.388Z,61.60
2023-01-21T12:04:37.607Z,57.42
2023-01-21T12:07:05.490Z,64.68
2023-01-21T12:09:32.246Z,61.83
2023-01-21T12:12:11.446Z,58.42
2023-01-21T12:14:59.271Z,62.17
2023-01-21T12:17:52.426Z,61.55
2023-01-21T12:20:33.652Z,66.78
2023-01-21T12:23:26.212Z,71.88
2023-01-21T12:26:02.873Z,73.05
2023-01-21T12:31:51.169Z,65.40
2023-01-21T12:34:28.296Z,64.68
2023-01-21T12:37:00.121Z,60.25
2023-01-21T12:39:33.452Z,61.75
2023-01-21T12:42:14.655Z,51.83
2023-01-21T12:44:53.369Z,54.20
2023-01-21T12:47:53.987Z,54.13
2023-01-21T12:50:39.714Z,58.25
2023-01-21T12:53:09.714Z,51.55
2023-01-21T12:55:58.422Z,52.30
2023-01-21T12:58:35.319Z,50.88
2023-01-21T13:01:09.650Z,51.30
2023-01-21T13:04:05.131Z,48.35
2023-01-21T13:06:53.118Z,52.17
2023-01-21T13:09:32.748Z,53.95
2023-01-21T13:12:11.918Z,55.80
2023-01-21T13:14:48.364Z,49.97
2023-01-21T13:17:19.825Z,50.70
2023-01-21T13:19:46.878Z,54.70
2023-01-21T13:22:39.879Z,56.67
2023-01-21T13:25:22.069Z,51.72
2023-01-21T13:28:12.538Z,53.92
2023-01-21T13:30:47.764Z,56.97
2023-01-21T13:33:52.215Z,60.75
2023-01-21T13:36:56.723Z,54.70
2023-01-21T13:39:44.787Z,48.90
2023-01-21T13:42:50.221Z,58.08
2023-01-21T13:45:46.070Z,56.67
2023-01-21T13:48:24.698Z,58.55
2023-01-21T13:51:05.644Z,61.50
2023-01-21T13:53:58.774Z,60.50
2023-01-21T13:56:45.096Z,56.95
2023-01-21T13:59:18.074Z,63.17
2023-01-21T14:01:55.124Z,58.67
2023-01-21T14:04:38.412Z,53.58
2023-01-21T14:07:22.423Z,56.95
2023-01-21T14:10:00.610Z,62.22
2023-01-21T14:12:41.903Z,57.38
2023-01-21T14:15:19.657Z,52.13
2023-01-21T14:18:18.715Z,55.22
2023-01-21T14:21:08.250Z,62.10
2023-01-21T14:23:39.343Z,55.28
2023-01-21T14:26:25.415Z,53.70
2023-01-21T14:29:06.678Z,57.47
2023-01-21T14:32:03.496Z,55.97
2023-01-21T14:34:35.199Z,53.47
2023-01-21T14:37:17.440Z,56.83
2023-01-21T14:39:58.366Z,54.10
2023-01-21T14:42:46.471Z,58.35
2023-01-21T14:45:15.978Z,58.83
2023-01-21T14:47:48.272Z,62.25
2023-01-21T14:50:43.047Z,58.42
2023-01-21T14:53:18.748Z,56.40
2023-01-21T14:55:45.728Z,56.42
2023-01-21T14:58:24.599Z,53.33
2023-01-21T15:00:51.672Z,52.65
2023-01-21T15:03:29.241Z,53.28
2023-01-21T15:06:00.499Z,49.38
2023-01-21T15:08:30.524Z,49.15
2023-01-21T15:11:08.209Z,47.83
2023-01-21T15:13:35.149Z,52.95
2023-01-21T15:16:26.615Z,50.40
2023-01-21T15:19:08.911Z,51.78
2023-01-21T15:21:42.294Z,57.97
2023-01-21T15:24:35.359Z,60.03
2023-01-21T15:27:18.481Z,45.08
2023-01-21T15:29:54.637Z,51.22
2023-01-21T15:32:38.851Z,50.58
2023-01-21T15:35:20.590Z,53.50
2023-01-21T15:37:52.184Z,50.80
2023-01-21T15:40:28.274Z,49.58
2023-01-21T15:43:05.815Z,54.10
2023-01-21T15:46:09.882Z,55.55
2023-01-21T15:49:02.136Z,54.55
2023-01-21T15:51:44.544Z,51.08
2023-01-21T15:54:17.360Z,51.47
2023-01-21T15:57:02.519Z,45.53
2023-01-21T15:59:56.886Z,51.88
2023-01-21T16:02:26.410Z,56.88
2023-01-21T16:05:31.156Z,55.10
2023-01-21T16:08:14.452Z,57.15
2023-01-21T16:11:13.852Z,52.13
2023-01-21T16:14:20.550Z,52.13
2023-01-21T16:17:07.059Z,49.88
2023-01-21T16:19:38.428Z,49.42
2023-01-21T16:22:07.843Z,51.08
2023-01-21T16:24:39.380Z,51.35
2023-01-21T16:27:26.928Z,50.75
2023-01-21T16:30:14.607Z,52.88
2023-01-21T16:32:42.235Z,45.33
2023-01-21T16:35:09.374Z,51.28
2023-01-21T16:37:36.828Z,46.95
2023-01-21T16:40:09.715Z,46.28
2023-01-21T16:42:40.969Z,57.50
2023-01-21T16:45:19.368Z,54.60
2023-01-21T16:47:53.563Z,58.45
2023-01-21T16:50:26.593Z,54.53
2023-01-21T16:52:55.016Z,54.28
2023-01-21T16:55:30.184Z,50.08
2023-01-21T16:57:59.118Z,50.25
2023-01-21T17:00:31.480Z,59.10
2023-01-21T17:02:59.584Z,50.42
2023-01-21T17:05:29.226Z,55.75
2023-01-21T17:08:02.361Z,53.08
2023-01-21T17:10:53.114Z,49.67
2023-01-21T17:13:20.264Z,52.47
2023-01-21T17:15:58.595Z,51.30
2023-01-21T17:18:39.516Z,52.50
2023-01-21T17:21:13.858Z,59.15
2023-01-21T17:23:51.630Z,54.58
2023-01-21T17:26:38.163Z,50.47
2023-01-21T17:29:19.743Z,47.33
2023-01-21T17:31:55.089Z,47.67
2023-01-21T17:34:28.125Z,54.53
2023-01-21T17:36:55.614Z,49.22
2023-01-21T17:39:50.296Z,52.97
2023-01-21T17:42:19.263Z,48.65
2023-01-21T17:44:51.535Z,49.17
2023-01-21T17:47:33.246Z,46.40
2023-01-21T17:50:09.238Z,52.45
2023-01-21T17:52:36.327Z,50.13
2023-01-21T17:55:31.070Z,57.15
2023-01-21T17:58:00.315Z,55.95
2023-01-21T18:00:39.505Z,55.85
2023-01-21T18:03:06.508Z,53.40
2023-01-21T18:05:33.386Z,51.15
2023-01-21T18:08:00.323Z,54.08
2023-01-21T18:10:28.926Z,55.28
2023-01-21T18:12:58.180Z,55.95
2023-01-21T18:15:26.140Z,56.55
2023-01-21T18:18:00.516Z,55.42
2023-01-21T18:20:29.183Z,55.22
2023-01-21T18:22:57.788Z,64.13
2023-01-21T18:25:26.294Z,57.35
2023-01-21T18:27:56.675Z,58.90
2023-01-21T18:30:29.169Z,55.83
2023-01-21T18:32:57.129Z,54.85
2023-01-21T18:35:28.675Z,64.93
2023-01-21T18:37:57.334Z,58.03
2023-01-21T18:40:27.276Z,58.72
2023-01-21T18:42:56.015Z,58.63
2023-01-21T18:45:26.591Z,59.67
2023-01-21T18:47:53.788Z,61.15
2023-01-21T18:50:26.034Z,60.20
2023-01-21T18:52:57.973Z,63.05
2023-01-21T18:55:31.887Z,62.55
2023-01-21T18:58:08.057Z,61.20
2023-01-21T19:00:34.963Z,60.35
2023-01-21T19:03:01.898Z,60.63
2023-01-21T19:05:36.316Z,56.38
2023-01-21T19:08:16.858Z,56.20
2023-01-21T19:10:43.938Z,58.13
2023-01-21T19:13:11.898Z,55.55
2023-01-21T19:15:39.063Z,57.70
2023-01-21T19:18:13.694Z,64.45
2023-01-21T19:20:41.834Z,58.50
2023-01-21T19:23:17.053Z,57.97
2023-01-21T19:25:48.231Z,59.60
2023-01-21T19:28:17.618Z,54.33
2023-01-21T19:30:47.978Z,62.75
2023-01-21T19:33:15.865Z,59.85
2023-01-21T19:35:46.649Z,59.47
2023-01-21T19:38:21.240Z,54.15
2023-01-21T19:40:48.248Z,55.20
2023-01-21T19:43:18.388Z,60.50
2023-01-21T19:45:45.301Z,58.40
2023-01-21T19:48:16.984Z,53.22
2023-01-21T19:50:43.970Z,62.47
2023-01-21T19:53:14.632Z,62.85
2023-01-21T19:55:42.126Z,59.75
2023-01-21T19:58:19.757Z,57.50
2023-01-21T20:00:49.493Z,55.28
2023-01-21T20:03:19.695Z,63.55
2023-01-21T20:05:58.327Z,54.33
2023-01-21T20:08:27.620Z,61.58
2023-01-21T20:10:54.919Z,56.17
2023-01-21T20:13:22.018Z,58.17
2023-01-21T20:15:50.387Z,58.60
2023-01-21T20:18:25.934Z,60.45
2023-01-21T20:20:53.455Z,57.92
2023-01-21T20:23:21.553Z,56.75
2023-01-21T20:25:54.682Z,59.55
2023-01-21T20:28:23.051Z,64.80
2023-01-21T20:30:51.469Z,53.78
2023-01-21T20:33:21.650Z,63.42
2023-01-21T20:35:54.867Z,67.13
2023-01-21T20:38:28.380Z,67.75
2023-01-21T20:40:57.856Z,75.97
2023-01-21T20:43:24.683Z,69.53
2023-01-21T20:45:51.837Z,73.28
2023-01-21T20:48:25.297Z,65.50
2023-01-21T20:50:55.456Z,68.40
2023-01-21T20:53:26.040Z,59.20
2023-01-21T20:55:53.399Z,68.07
2023-01-21T20:58:22.162Z,60.85
2023-01-21T21:00:49.486Z,67.57
2023-01-21T21:03:18.396Z,65.15
2023-01-21T21:05:46.929Z,66.38
2023-01-21T21:08:16.740Z,61.20
2023-01-21T21:10:44.381Z,53.15
2023-01-21T21:13:12.188Z,59.20
2023-01-21T21:15:39.633Z,60.08
2023-01-21T21:18:07.030Z,61.67
2023-01-21T21:20:37.046Z,64.32
2023-01-21T21:23:07.686Z,63.95
2023-01-21T21:25:40.697Z,56.63
2023-01-21T21:28:07.608Z,58.95
2023-01-21T21:30:34.992Z,58.47
2023-01-21T21:33:02.368Z,55.85
2023-01-21T21:35:35.315Z,52.63
2023-01-21T21:38:13.172Z,58.78
2023-01-21T21:40:40.084Z,52.00
2023-01-21T21:43:27.051Z,55.47
2023-01-21T21:46:12.744Z,58.22
2023-01-21T21:48:39.802Z,53.53
2023-01-21T21:51:14.493Z,56.63
2023-01-21T21:53:45.160Z,53.63
2023-01-21T21:56:17.372Z,51.85
2023-01-21T21:58:44.958Z,52.40
2023-01-21T22:01:22.294Z,46.92
2023-01-21T22:03:49.627Z,48.90
2023-01-21T22:06:20.863Z,44.78
2023-01-21T22:08:48.618Z,45.35
2023-01-21T22:11:20.038Z,44.70
2023-01-21T22:13:50.203Z,43.67
2023-01-21T22:16:28.274Z,45.20
2023-01-21T22:18:56.302Z,44.13
2023-01-21T22:21:27.940Z,48.90
2023-01-21T22:23:55.383Z,45.42
2023-01-21T22:26:24.883Z,48.22
2023-01-21T22:28:51.780Z,45.85
2023-01-21T22:31:24.823Z,43.58
2023-01-21T22:33:51.991Z,46.35
2023-01-21T22:36:20.928Z,48.42
2023-01-21T22:38:48.016Z,42.47
2023-01-21T22:41:16.845Z,39.92
2023-01-21T22:43:45.083Z,43.40
2023-01-21T22:46:13.987Z,37.47
2023-01-21T22:48:42.170Z,35.03
2023-01-21T22:51:12.159Z,39.08
2023-01-21T22:53:43.965Z,33.92
2023-01-21T22:56:13.063Z,39.15
2023-01-21T22:58:39.973Z,36.15
2023-01-21T23:01:07.401Z,36.53
2023-01-21T23:03:34.479Z,37.45
2023-01-21T23:06:08.472Z,40.50
2023-01-21T23:08:38.349Z,40.28
2023-01-21T23:11:06.878Z,39.67
2023-01-21T23:13:34.227Z,40.30
2023-01-21T23:16:01.589Z,39.33
2023-01-21T23:18:29.488Z,37.42
2023-01-21T23:20:56.373Z,39.90
2023-01-21T23:23:24.067Z,37.13
2023-01-21T23:25:51.115Z,42.28
2023-01-21T23:28:17.924Z,38.33
2023-01-21T23:30:45.001Z,39.78
2023-01-21T23:33:11.996Z,36.15
2023-01-21T23:35:38.637Z,40.30
2023-01-21T23:38:05.512Z,37.10
2023-01-21T23:40:32.377Z,43.42
2023-01-21T23:42:59.378Z,38.70
2023-01-21T23:45:26.142Z,36.28
2023-01-21T23:47:54.340Z,42.05
2023-01-21T23:50:21.239Z,38.55
2023-01-21T23:52:48.075Z,38.35
2023-01-21T23:55:14.937Z,47.00
2023-01-21T23:57:41.743Z,40.03
